Airfield :
LOGIN :

Register | Disclaimer

   EN    FR    IT 

 










Legend :    VFR   Marginal VFR   IFR   Intensive IFR   Very Intensive IFR
Visi :
Ceiling :
>= 8 km
>= 3000ft
5 to 8 km
1000 to 3000 ft
1500m to 5 km
500 to 1000 ft
800 to 1500m
200 to 500 ft
< 800m
< 200 ft
Symbols :   Thunderstorms  Fog  Heavy snow  Heavy precipitations  Wind > 20 kt
SIGMETs :     Misc.  Thunderstorms  Icing  Turbulence  Mountain Waves  Volcanic Ashes






- Airport Elevation : 146 ft
- IATA code : RKE


EKRK - Roskilde Tune

CURRENT METAR :
  • 182020Z AUTO 26002KT 9999 SCT041/// 09/06 Q1010

EXPIRED METARs :
  • 181950Z AUTO 26003KT 9999 NCD 10/06 Q1010
  • 181920Z AUTO 26003KT 9999 FEW056/// 10/07 Q1010
  • 181850Z AUTO 29005KT 9999 OVC046/// 12/07 Q1010
  • 181820Z AUTO 27006KT 240V310 9999 BKN031/// OVC044/// 13/07 Q1010
  • 181750Z AUTO 27006KT 9999 FEW035/// SCT043/// BKN056/// 12/07 Q1010

TAF TAF EKRK
Valid from the 18 at 21:00 until the 19 at 06:00 UTC


182000Z 1821/1906 VRB02KT 9999 BKN040
TEMPO 1900/1903 SHRA SCT030TCU



MET'MAP, your aeronautical weather chart ! - Copyright ORBIFLY December 2007 - Disclaimer

ORBIFLY MET'MAP TEAM :

Programming & Development : Alexandra Zaïnal
Concept & original design : Baudouin d'Aumeries
Assistance for programming : Marc-Olivier Méhu
Technical & hardware support : Manuel Goepfert

Contact : metmap@orbifly.com




SOURCES & CREDITS :

   NOAA